Time;durP1;ratioP1;P1;durP2;ratioP2;P2;SDS_P1;SDS_P2;PMS_P1;PMS_P2;Temp;Humidity;BMP_temperature;BMP_pressure;BME280_temperature;BME280_humidity;BME280_pressure;Samples;Min_cycle;Max_cycle;Signal;HPM_P1;HPM_P2
2024/02/07 00:00:35;;;;;;;0.50;0.50;;;9.30;99.90;;;;;;4954189;28;20404;-80
2024/02/07 00:03:03;;;;;;;0.50;0.50;;;9.30;99.90;;;;;;4955722;28;20207;-81
2024/02/07 00:05:29;;;;;;;0.65;0.65;;;9.30;99.90;;;;;;4955259;28;20246;-80
2024/02/07 00:07:56;;;;;;;0.50;0.50;;;9.30;99.90;;;;;;4952664;28;20212;-80
2024/02/07 00:10:23;;;;;;;0.70;0.70;;;9.30;99.90;;;;;;4936919;29;20220;-81
2024/02/07 00:12:50;;;;;;;1.20;1.20;;;9.30;99.90;;;;;;4959377;28;20215;-80
2024/02/07 00:15:17;;;;;;;4.72;2.90;;;9.30;99.90;;;;;;4955953;28;20595;-81
2024/02/07 00:17:46;;;;;;;0.50;0.50;;;9.30;99.90;;;;;;4956907;29;20372;-82
2024/02/07 00:20:14;;;;;;;1.00;1.00;;;9.30;99.90;;;;;;4948611;28;20223;-79
2024/02/07 00:22:41;;;;;;;0.50;0.50;;;9.30;99.90;;;;;;4957495;28;20222;-81
2024/02/07 00:25:08;;;;;;;1.15;1.15;;;9.30;99.90;;;;;;4954839;28;20508;-80
2024/02/07 00:27:35;;;;;;;1.30;1.30;;;9.30;99.90;;;;;;4951312;29;20212;-83
2024/02/07 00:30:03;;;;;;;0.50;0.50;;;9.30;99.90;;;;;;4929572;28;20271;-80
2024/02/07 00:32:30;;;;;;;0.60;0.60;;;9.30;99.90;;;;;;4954845;28;20322;-77
2024/02/07 00:34:57;;;;;;;0.50;0.50;;;9.40;99.90;;;;;;4950464;28;20259;-78
2024/02/07 00:37:24;;;;;;;0.60;0.60;;;9.40;99.90;;;;;;4949587;28;20586;-79
2024/02/07 00:39:53;;;;;;;1.42;1.38;;;9.50;99.90;;;;;;4954896;28;20247;-83
2024/02/07 00:42:21;;;;;;;0.60;0.60;;;9.40;99.90;;;;;;4951898;28;20282;-81
2024/02/07 00:44:47;;;;;;;0.75;0.75;;;9.40;99.90;;;;;;4949091;28;20208;-81
2024/02/07 00:47:15;;;;;;;1.40;1.40;;;9.40;99.90;;;;;;4963256;28;20526;-79
2024/02/07 00:49:42;;;;;;;0.70;0.70;;;9.40;99.90;;;;;;4967281;28;20209;-80
2024/02/07 00:52:09;;;;;;;0.60;0.60;;;9.40;99.90;;;;;;4959060;28;20180;-79
2024/02/07 00:54:36;;;;;;;0.85;0.85;;;9.40;99.90;;;;;;4978460;28;20213;-83
2024/02/07 00:57:03;;;;;;;0.50;0.50;;;9.30;99.90;;;;;;4976051;28;20226;-80
2024/02/07 00:59:30;;;;;;;0.80;0.80;;;9.40;99.90;;;;;;4951311;29;20229;-79
2024/02/07 01:01:57;;;;;;;0.60;0.60;;;9.30;99.90;;;;;;4932840;28;20216;-80
2024/02/07 01:04:24;;;;;;;0.55;0.55;;;9.30;99.90;;;;;;4962246;28;20207;-81
2024/02/07 01:06:51;;;;;;;0.60;0.60;;;9.30;99.90;;;;;;4932741;29;20392;-81
2024/02/07 01:09:18;;;;;;;0.50;0.50;;;9.20;99.90;;;;;;4955451;28;20223;-84
2024/02/07 01:11:45;;;;;;;0.60;0.60;;;9.20;99.90;;;;;;4963591;28;20277;-81
2024/02/07 01:14:12;;;;;;;0.60;0.60;;;9.10;99.90;;;;;;4953148;28;20212;-81
2024/02/07 01:16:39;;;;;;;0.60;0.60;;;9.10;99.90;;;;;;4962043;29;20273;-81
2024/02/07 01:19:06;;;;;;;1.50;1.40;;;9.10;99.90;;;;;;4936701;29;20520;-80
2024/02/07 01:21:33;;;;;;;0.80;0.80;;;9.10;99.90;;;;;;4933683;29;20207;-80
2024/02/07 01:24:00;;;;;;;0.50;0.50;;;9.10;99.90;;;;;;4945994;28;20774;-81
2024/02/07 01:26:31;;;;;;;0.60;0.60;;;9.10;99.90;;;;;;4953701;28;20211;-80
2024/02/07 01:28:58;;;;;;;0.60;0.60;;;9.20;99.90;;;;;;4956657;28;20506;-83
2024/02/07 01:31:25;;;;;;;0.50;0.50;;;9.10;99.90;;;;;;4948199;28;20278;-80
2024/02/07 01:33:52;;;;;;;0.70;0.70;;;9.10;99.90;;;;;;4956311;29;20211;-81
2024/02/07 01:36:21;;;;;;;0.60;0.60;;;9.10;99.90;;;;;;4951794;28;20243;-79
2024/02/07 01:38:48;;;;;;;0.60;0.60;;;9.00;99.90;;;;;;4955138;28;20249;-80
2024/02/07 01:41:15;;;;;;;1.00;1.00;;;9.00;99.90;;;;;;4955534;28;20238;-79
2024/02/07 01:43:43;;;;;;;0.60;0.60;;;9.00;99.90;;;;;;4961445;28;20274;-81
2024/02/07 01:46:11;;;;;;;0.60;0.60;;;9.00;99.90;;;;;;4952931;28;20219;-80
2024/02/07 01:48:42;;;;;;;0.70;0.70;;;9.00;99.90;;;;;;4941274;29;20278;-81
2024/02/07 01:51:10;;;;;;;0.60;0.60;;;8.90;99.90;;;;;;4955071;28;20708;-81
2024/02/07 01:53:38;;;;;;;0.50;0.50;;;9.00;99.90;;;;;;4932074;29;20564;-80
2024/02/07 01:56:10;;;;;;;0.70;0.70;;;8.90;99.90;;;;;;4956682;28;20409;-82
2024/02/07 01:58:37;;;;;;;0.75;0.75;;;9.00;99.90;;;;;;4966675;28;20258;-83
2024/02/07 02:01:04;;;;;;;0.60;0.60;;;9.00;99.90;;;;;;4974679;28;20198;-82
2024/02/07 02:03:31;;;;;;;0.90;0.90;;;8.90;99.90;;;;;;4981459;28;20190;-81
2024/02/07 02:06:00;;;;;;;0.60;0.60;;;8.90;99.90;;;;;;4981330;28;20258;-80
2024/02/07 02:08:27;;;;;;;0.60;0.60;;;8.90;99.90;;;;;;4972178;29;20278;-79
2024/02/07 02:11:00;;;;;;;0.70;0.70;;;8.90;99.90;;;;;;4971889;28;20270;-80
2024/02/07 02:13:28;;;;;;;0.60;0.60;;;8.90;99.90;;;;;;4981739;28;20187;-80
2024/02/07 02:15:55;;;;;;;0.98;0.98;;;8.90;99.90;;;;;;4980145;28;20277;-82
2024/02/07 02:18:22;;;;;;;0.75;0.75;;;8.90;99.90;;;;;;4985835;28;20278;-82
2024/02/07 02:20:49;;;;;;;0.63;0.63;;;9.10;99.90;;;;;;4957602;28;20214;-81
2024/02/07 02:23:31;;;;;;;0.80;0.80;;;8.90;99.90;;;;;;4962203;28;20206;-80
2024/02/07 02:26:07;;;;;;;4.20;3.85;;;8.90;99.90;;;;;;4972694;28;20211;-80
2024/02/07 02:28:34;;;;;;;2.15;2.00;;;8.90;99.90;;;;;;4956169;29;20207;-81
2024/02/07 02:31:06;;;;;;;0.80;0.80;;;9.00;99.90;;;;;;4944092;29;20241;-79
2024/02/07 02:33:35;;;;;;;1.80;1.70;;;8.90;99.90;;;;;;4953382;29;20210;-80
2024/02/07 02:36:04;;;;;;;0.60;0.60;;;8.90;99.90;;;;;;4969552;28;20258;-79
2024/02/07 02:38:35;;;;;;;0.80;0.80;;;9.00;99.90;;;;;;4949436;29;20285;-81
2024/02/07 02:41:09;;;;;;;0.80;0.80;;;8.90;99.90;;;;;;4968421;28;20270;-80
2024/02/07 02:43:40;;;;;;;0.60;0.60;;;8.90;99.90;;;;;;4962154;28;20238;-80
2024/02/07 02:46:09;;;;;;;1.00;1.00;;;8.90;99.90;;;;;;4952072;28;20278;-81
2024/02/07 02:48:37;;;;;;;0.68;0.68;;;8.90;99.90;;;;;;4952175;28;20249;-79
2024/02/07 02:51:04;;;;;;;0.88;0.88;;;8.90;99.90;;;;;;4956478;28;20504;-82
2024/02/07 02:53:32;;;;;;;0.60;0.60;;;9.00;99.90;;;;;;4952616;28;20211;-79
2024/02/07 02:56:01;;;;;;;1.00;1.00;;;8.90;99.90;;;;;;4964125;28;20293;-79
2024/02/07 02:58:30;;;;;;;0.70;0.70;;;8.90;99.90;;;;;;4959747;28;20199;-84
2024/02/07 03:01:09;;;;;;;0.70;0.70;;;8.90;99.90;;;;;;4966875;28;20206;-82
2024/02/07 03:03:38;;;;;;;0.68;0.68;;;8.90;99.90;;;;;;4942466;29;20213;-80
2024/02/07 03:06:18;;;;;;;1.13;0.93;;;8.90;99.90;;;;;;4962187;28;20272;-81
2024/02/07 03:08:54;;;;;;;0.93;0.93;;;8.90;99.90;;;;;;4958415;28;20622;-80
2024/02/07 03:11:22;;;;;;;0.57;0.57;;;8.80;99.90;;;;;;4934622;28;20207;-77
2024/02/07 03:13:50;;;;;;;1.58;1.40;;;8.80;99.90;;;;;;4935603;29;20214;-80
2024/02/07 03:16:18;;;;;;;0.60;0.60;;;8.80;99.90;;;;;;4952409;28;20286;-81
2024/02/07 03:18:45;;;;;;;0.60;0.60;;;8.70;99.90;;;;;;4958629;28;20228;-81
2024/02/07 03:21:12;;;;;;;0.70;0.70;;;8.70;99.90;;;;;;4957599;28;20204;-82
2024/02/07 03:23:39;;;;;;;0.60;0.60;;;8.80;99.90;;;;;;4959191;28;20231;-81
2024/02/07 03:26:09;;;;;;;0.60;0.60;;;8.60;99.90;;;;;;4949587;28;20250;-81
2024/02/07 03:28:37;;;;;;;0.60;0.60;;;8.70;99.90;;;;;;4956473;28;20270;-82
2024/02/07 03:31:05;;;;;;;1.10;1.10;;;8.70;99.90;;;;;;4950490;28;20232;-78
2024/02/07 03:33:32;;;;;;;0.60;0.60;;;8.70;99.90;;;;;;4952614;28;20492;-80
2024/02/07 03:35:59;;;;;;;0.60;0.60;;;8.80;99.90;;;;;;4946922;29;20231;-79
2024/02/07 03:38:27;;;;;;;0.50;0.50;;;8.60;99.90;;;;;;4952132;28;20264;-81
2024/02/07 03:40:55;;;;;;;0.80;0.80;;;8.60;99.90;;;;;;4957128;28;20247;-79
2024/02/07 03:43:23;;;;;;;1.10;1.10;;;8.60;99.90;;;;;;4947766;28;20207;-80
2024/02/07 03:45:52;;;;;;;0.50;0.50;;;8.60;99.90;;;;;;4957553;28;20211;-80
2024/02/07 03:48:23;;;;;;;0.50;0.50;;;8.60;99.90;;;;;;4957664;28;20207;-82
2024/02/07 03:50:51;;;;;;;0.50;0.50;;;8.60;99.90;;;;;;4973934;28;20194;-81
2024/02/07 03:53:19;;;;;;;0.82;0.82;;;8.60;99.90;;;;;;4964641;28;20266;-79
2024/02/07 03:55:48;;;;;;;0.50;0.50;;;8.60;99.90;;;;;;4952767;28;20239;-80
2024/02/07 03:58:15;;;;;;;5.45;1.60;;;8.60;99.90;;;;;;4939136;29;20208;-83
2024/02/07 04:00:43;;;;;;;0.95;0.95;;;8.60;99.90;;;;;;4937792;29;20246;-81
2024/02/07 04:03:10;;;;;;;0.68;0.68;;;8.60;99.90;;;;;;4958928;28;20262;-80
2024/02/07 04:05:37;;;;;;;2.15;2.05;;;8.60;99.90;;;;;;4955587;28;20214;-82
2024/02/07 04:08:05;;;;;;;0.60;0.60;;;8.50;99.90;;;;;;4962621;29;20283;-81
2024/02/07 04:10:41;;;;;;;0.50;0.50;;;8.50;99.90;;;;;;4955574;28;20234;-82
2024/02/07 05:16:21;;;;;;;0.50;0.50;;;9.00;99.90;;;;;;4951212;28;20255;-81
2024/02/07 05:18:48;;;;;;;1.35;1.35;;;8.90;99.90;;;;;;4934762;29;20219;-80
2024/02/07 05:21:15;;;;;;;0.50;0.50;;;9.00;99.90;;;;;;4958177;28;20213;-80
2024/02/07 05:23:42;;;;;;;0.50;0.50;;;9.00;99.90;;;;;;4965178;28;20196;-79
2024/02/07 05:26:10;;;;;;;0.50;0.50;;;9.00;99.90;;;;;;4956792;28;20285;-80
2024/02/07 05:28:39;;;;;;;0.90;0.90;;;8.90;99.90;;;;;;4953708;28;20203;-80
2024/02/07 05:31:07;;;;;;;0.50;0.50;;;8.90;99.90;;;;;;4947720;28;20207;-80
2024/02/07 05:33:34;;;;;;;0.50;0.50;;;8.90;99.90;;;;;;4953864;28;20210;-81
2024/02/07 05:36:01;;;;;;;0.82;0.82;;;8.90;99.90;;;;;;4947422;28;20235;-81
2024/02/07 05:38:28;;;;;;;0.50;0.50;;;8.90;99.90;;;;;;4944553;28;20243;-78
2024/02/07 05:40:55;;;;;;;0.50;0.50;;;8.90;99.90;;;;;;4953172;28;20270;-81
2024/02/07 05:43:22;;;;;;;0.45;0.45;;;8.90;99.90;;;;;;4958047;28;20266;-82
2024/02/07 05:45:49;;;;;;;0.45;0.45;;;9.00;99.90;;;;;;4955708;28;20202;-80
2024/02/07 05:48:16;;;;;;;0.50;0.50;;;9.00;99.90;;;;;;4938539;29;20222;-82
2024/02/07 05:50:45;;;;;;;0.50;0.50;;;8.90;99.90;;;;;;4947850;28;20243;-79
2024/02/07 05:53:12;;;;;;;0.82;0.82;;;8.90;99.90;;;;;;4954748;28;20202;-82
2024/02/07 05:55:39;;;;;;;0.73;0.73;;;8.90;99.90;;;;;;4953925;28;20212;-82
2024/02/07 05:58:06;;;;;;;0.40;0.40;;;8.90;99.90;;;;;;4937965;29;20257;-82
2024/02/07 06:00:33;;;;;;;0.47;0.47;;;8.90;99.90;;;;;;4951926;28;20211;-80
2024/02/07 06:03:05;;;;;;;0.50;0.50;;;8.90;99.90;;;;;;4946575;28;20242;-80
2024/02/07 06:05:33;;;;;;;0.70;0.70;;;8.90;99.90;;;;;;4951424;28;20215;-81
2024/02/07 06:08:00;;;;;;;0.47;0.47;;;8.80;99.90;;;;;;4956364;28;20258;-80
2024/02/07 06:10:28;;;;;;;0.47;0.47;;;8.70;99.90;;;;;;4952121;28;20424;-82
2024/02/07 06:12:55;;;;;;;0.40;0.40;;;8.70;99.90;;;;;;4925283;29;20526;-77
2024/02/07 06:15:22;;;;;;;1.08;1.08;;;8.90;99.90;;;;;;4950558;28;20208;-81
2024/02/07 06:17:49;;;;;;;0.50;0.50;;;8.90;99.90;;;;;;4959719;28;20302;-82
2024/02/07 06:20:17;;;;;;;0.40;0.40;;;8.90;99.90;;;;;;4952521;28;20538;-81
2024/02/07 06:22:47;;;;;;;0.88;0.88;;;8.90;99.90;;;;;;4960616;28;20207;-83
2024/02/07 06:25:17;;;;;;;0.50;0.50;;;8.90;99.90;;;;;;4941549;29;20289;-83
2024/02/07 06:27:45;;;;;;;0.50;0.50;;;8.80;99.90;;;;;;4953124;28;20283;-80
2024/02/07 06:30:12;;;;;;;0.50;0.50;;;8.90;99.90;;;;;;4944445;28;20224;-81
2024/02/07 06:32:39;;;;;;;0.50;0.50;;;8.90;99.90;;;;;;4967646;28;20238;-81
2024/02/07 06:35:06;;;;;;;0.50;0.50;;;8.90;99.90;;;;;;4954992;28;20208;-81
2024/02/07 06:37:33;;;;;;;0.50;0.50;;;8.90;99.90;;;;;;4958234;28;20242;-79
2024/02/07 06:40:01;;;;;;;0.57;0.57;;;8.90;99.90;;;;;;4942378;28;20263;-81
2024/02/07 06:42:27;;;;;;;0.50;0.50;;;9.00;99.90;;;;;;4962474;28;20278;-85
2024/02/07 06:44:54;;;;;;;0.50;0.50;;;8.90;99.90;;;;;;4956595;28;20207;-83
2024/02/07 06:47:21;;;;;;;4.70;1.45;;;8.90;99.90;;;;;;4965838;28;20211;-80
2024/02/07 06:49:48;;;;;;;0.50;0.50;;;9.00;99.90;;;;;;4967449;28;20214;-83
2024/02/07 06:52:15;;;;;;;0.50;0.50;;;9.00;99.90;;;;;;4968269;28;20252;-86
2024/02/07 06:54:43;;;;;;;0.50;0.50;;;8.90;99.90;;;;;;4960673;28;20271;-85
2024/02/07 06:57:10;;;;;;;0.70;0.70;;;9.00;99.90;;;;;;4966889;28;20235;-85
2024/02/07 06:59:37;;;;;;;0.70;0.70;;;9.00;99.90;;;;;;4932371;28;20217;-83
2024/02/07 07:02:04;;;;;;;0.43;0.43;;;9.00;99.90;;;;;;4948973;28;20208;-80
2024/02/07 07:04:32;;;;;;;0.50;0.50;;;8.90;99.90;;;;;;4958909;28;20191;-84
2024/02/07 07:07:01;;;;;;;0.50;0.50;;;9.00;99.90;;;;;;4978500;28;20215;-85
2024/02/07 07:09:29;;;;;;;0.50;0.50;;;9.10;99.90;;;;;;4971799;28;20284;-86
2024/02/07 07:11:56;;;;;;;0.60;0.60;;;9.10;99.90;;;;;;4974593;28;20194;-83
2024/02/07 07:14:23;;;;;;;0.55;0.55;;;9.10;99.90;;;;;;4974998;28;20242;-79
2024/02/07 07:16:50;;;;;;;1.63;1.63;;;9.10;99.90;;;;;;4959874;28;20254;-79
2024/02/07 07:19:17;;;;;;;0.50;0.50;;;9.10;99.90;;;;;;4954804;28;20207;-81
2024/02/07 07:21:45;;;;;;;0.50;0.50;;;9.10;99.90;;;;;;4955343;28;20210;-83
2024/02/07 07:24:12;;;;;;;0.50;0.50;;;9.20;99.90;;;;;;4952444;28;20199;-82
2024/02/07 07:26:41;;;;;;;0.50;0.50;;;9.20;99.90;;;;;;4954747;28;20858;-82
2024/02/07 07:29:10;;;;;;;0.50;0.50;;;9.30;99.90;;;;;;4946957;28;20576;-80
2024/02/07 07:31:37;;;;;;;0.70;0.70;;;9.20;99.90;;;;;;4937675;28;20203;-81
2024/02/07 07:34:05;;;;;;;2.05;1.95;;;9.30;99.90;;;;;;4948844;28;20218;-83
2024/02/07 07:36:32;;;;;;;0.50;0.50;;;9.20;99.90;;;;;;4953272;28;20231;-82
2024/02/07 07:38:59;;;;;;;0.50;0.50;;;9.20;99.90;;;;;;4951517;28;20230;-78
2024/02/07 07:41:26;;;;;;;0.80;0.80;;;9.30;99.90;;;;;;4958754;29;20493;-83
2024/02/07 07:43:53;;;;;;;0.50;0.50;;;9.30;99.90;;;;;;4955531;28;20216;-79
2024/02/07 07:46:21;;;;;;;0.70;0.70;;;9.30;99.90;;;;;;4950510;28;20196;-84
2024/02/07 07:48:48;;;;;;;0.60;0.60;;;9.40;99.90;;;;;;4945655;28;20214;-79
2024/02/07 07:51:19;;;;;;;0.50;0.50;;;9.40;99.90;;;;;;4953415;28;20230;-80
2024/02/07 07:53:47;;;;;;;0.50;0.50;;;9.40;99.90;;;;;;4941545;28;20211;-81
2024/02/07 07:56:15;;;;;;;0.50;0.50;;;9.40;99.90;;;;;;4949906;28;20212;-81
2024/02/07 07:58:43;;;;;;;0.50;0.50;;;9.50;99.90;;;;;;4958191;28;20238;-82
2024/02/07 08:01:21;;;;;;;1.95;1.58;;;9.60;99.90;;;;;;4932462;29;20211;-81
2024/02/07 08:03:53;;;;;;;0.50;0.50;;;9.60;99.90;;;;;;4945883;28;20456;-82
2024/02/07 08:06:21;;;;;;;0.60;0.60;;;9.60;99.90;;;;;;4951531;28;20214;-81
2024/02/07 08:08:48;;;;;;;0.50;0.50;;;9.60;99.90;;;;;;4959938;28;20211;-82
2024/02/07 08:11:15;;;;;;;0.50;0.50;;;9.60;99.90;;;;;;4957901;28;20222;-84
2024/02/07 08:13:42;;;;;;;0.50;0.50;;;9.60;99.90;;;;;;4957452;28;20519;-81
2024/02/07 08:16:09;;;;;;;0.57;0.57;;;9.60;99.90;;;;;;4950632;28;20207;-80
2024/02/07 08:18:36;;;;;;;0.50;0.50;;;9.50;99.90;;;;;;4951473;28;20241;-82
2024/02/07 08:21:05;;;;;;;0.60;0.60;;;9.50;99.90;;;;;;4956854;28;20441;-79
2024/02/07 08:23:32;;;;;;;0.60;0.60;;;9.50;99.90;;;;;;4943760;28;20211;-80
2024/02/07 08:25:59;;;;;;;0.50;0.50;;;9.50;99.90;;;;;;4934138;28;20242;-81
2024/02/07 08:28:26;;;;;;;0.50;0.50;;;9.40;99.90;;;;;;4963176;28;20242;-80
2024/02/07 08:30:53;;;;;;;0.80;0.80;;;9.40;99.90;;;;;;4957173;28;20215;-81
2024/02/07 08:33:20;;;;;;;0.60;0.60;;;9.30;99.90;;;;;;4950140;28;20199;-82
2024/02/07 08:35:48;;;;;;;0.50;0.50;;;9.20;99.90;;;;;;4948808;28;20210;-84
2024/02/07 08:38:15;;;;;;;0.70;0.70;;;9.10;99.90;;;;;;4957025;28;20232;-79
2024/02/07 08:40:42;;;;;;;0.90;0.90;;;8.80;99.90;;;;;;4945824;28;20223;-80
2024/02/07 08:43:09;;;;;;;0.90;0.90;;;7.70;99.90;;;;;;4951572;28;20403;-79
2024/02/07 08:45:37;;;;;;;0.90;0.90;;;7.20;99.90;;;;;;4956086;28;20213;-77
2024/02/07 08:48:06;;;;;;;1.17;1.17;;;6.80;99.90;;;;;;4952548;28;20534;-79
2024/02/07 08:50:34;;;;;;;1.10;1.10;;;6.70;99.90;;;;;;4962606;28;20203;-80
2024/02/07 08:53:01;;;;;;;1.00;1.00;;;6.50;99.90;;;;;;4949848;28;20242;-79
2024/02/07 08:55:29;;;;;;;1.00;1.00;;;6.50;99.90;;;;;;4948113;28;20443;-79
2024/02/07 08:57:58;;;;;;;0.85;0.85;;;6.40;99.90;;;;;;4958785;28;20239;-78
2024/02/07 09:00:26;;;;;;;0.75;0.75;;;6.30;99.90;;;;;;4976100;28;20211;-81
2024/02/07 09:02:54;;;;;;;0.85;0.82;;;6.40;99.90;;;;;;4950721;28;20260;-83
2024/02/07 09:05:22;;;;;;;1.50;1.40;;;6.30;99.90;;;;;;4943011;28;20290;-80
2024/02/07 09:07:49;;;;;;;0.60;0.60;;;6.30;99.90;;;;;;4947334;28;20371;-78
2024/02/07 09:10:17;;;;;;;0.68;0.68;;;6.30;99.90;;;;;;4955225;29;20210;-81
2024/02/07 09:12:44;;;;;;;0.60;0.60;;;6.30;99.90;;;;;;4954081;28;20203;-82
2024/02/07 09:15:11;;;;;;;0.60;0.60;;;6.30;99.90;;;;;;4960024;29;20207;-80
2024/02/07 09:17:38;;;;;;;0.60;0.60;;;6.30;99.90;;;;;;4931557;29;20258;-79
2024/02/07 09:20:05;;;;;;;0.60;0.60;;;6.30;99.90;;;;;;4948550;28;20225;-81
2024/02/07 09:22:33;;;;;;;0.60;0.60;;;6.20;99.90;;;;;;4949113;28;20228;-78
2024/02/07 09:25:00;;;;;;;0.60;0.60;;;5.90;99.90;;;;;;4943319;28;20248;-80
2024/02/07 09:27:27;;;;;;;0.90;0.90;;;5.70;99.90;;;;;;4960957;28;20539;-77
2024/02/07 09:29:56;;;;;;;0.63;0.63;;;5.40;99.90;;;;;;4956089;28;20206;-78
2024/02/07 09:32:40;;;;;;;0.50;0.50;;;5.30;99.90;;;;;;4950100;28;20396;-81
2024/02/07 09:35:08;;;;;;;0.50;0.50;;;5.30;99.90;;;;;;4960757;28;20237;-76
2024/02/07 09:37:36;;;;;;;0.50;0.50;;;5.40;99.90;;;;;;4961263;28;20261;-78
2024/02/07 09:40:04;;;;;;;1.20;1.10;;;5.20;99.90;;;;;;4938703;28;20468;-77
2024/02/07 09:42:37;;;;;;;1.50;1.40;;;5.10;99.90;;;;;;4955296;28;20204;-77
2024/02/07 09:45:06;;;;;;;4.00;0.82;;;5.20;99.90;;;;;;4949554;28;20197;-78
2024/02/07 09:47:40;;;;;;;0.60;0.60;;;5.20;99.90;;;;;;4956922;28;20219;-78
2024/02/07 09:50:10;;;;;;;1.00;0.98;;;5.30;99.90;;;;;;4944346;29;20515;-80
2024/02/07 09:52:38;;;;;;;0.50;0.50;;;5.30;99.90;;;;;;4950702;28;20221;-79
2024/02/07 09:55:08;;;;;;;0.60;0.60;;;5.30;99.90;;;;;;4951077;28;20231;-77
2024/02/07 09:57:36;;;;;;;0.70;0.70;;;5.30;99.90;;;;;;4956158;28;20306;-80
2024/02/07 10:00:03;;;;;;;0.70;0.70;;;5.20;99.90;;;;;;4944323;29;20204;-81
2024/02/07 10:02:34;;;;;;;0.60;0.60;;;5.10;99.90;;;;;;4955407;28;20241;-83
2024/02/07 10:05:04;;;;;;;0.88;0.88;;;5.10;99.90;;;;;;4951239;28;20213;-78
2024/02/07 10:07:33;;;;;;;0.57;0.57;;;5.20;99.90;;;;;;4950855;28;20220;-78
2024/02/07 10:10:01;;;;;;;0.60;0.60;;;5.20;99.90;;;;;;4953808;28;20262;-77
2024/02/07 10:12:28;;;;;;;0.60;0.60;;;5.10;99.90;;;;;;4955288;28;20282;-80
2024/02/07 10:14:56;;;;;;;0.60;0.60;;;5.10;99.90;;;;;;4960160;28;20211;-84
2024/02/07 10:17:23;;;;;;;0.50;0.50;;;5.00;99.90;;;;;;4952940;28;20247;-84
2024/02/07 10:19:51;;;;;;;0.60;0.60;;;5.00;99.90;;;;;;4963568;28;20256;-80
2024/02/07 10:22:20;;;;;;;0.80;0.80;;;4.90;99.90;;;;;;4937849;29;20320;-80
2024/02/07 10:24:47;;;;;;;0.60;0.60;;;4.80;99.90;;;;;;4953353;28;20395;-78
2024/02/07 10:27:19;;;;;;;0.60;0.60;;;4.70;99.90;;;;;;4949268;28;20272;-80
2024/02/07 10:29:46;;;;;;;1.10;1.00;;;4.60;99.90;;;;;;4956874;28;20215;-77
2024/02/07 10:32:17;;;;;;;0.60;0.60;;;4.40;99.90;;;;;;4953626;29;20447;-79
2024/02/07 10:34:52;;;;;;;0.60;0.60;;;4.40;99.90;;;;;;4952119;28;20211;-77
2024/02/07 10:37:24;;;;;;;0.60;0.60;;;4.40;99.90;;;;;;4953955;28;20227;-84
2024/02/07 10:40:04;;;;;;;0.50;0.50;;;4.40;99.90;;;;;;4959394;28;20214;-79
2024/02/07 10:42:31;;;;;;;0.60;0.60;;;4.30;99.90;;;;;;4963850;28;20282;-78
2024/02/07 10:45:03;;;;;;;0.60;0.60;;;4.40;99.90;;;;;;4955272;28;20238;-82
2024/02/07 10:47:35;;;;;;;0.60;0.60;;;4.40;99.90;;;;;;4956509;28;20254;-80
2024/02/07 10:50:04;;;;;;;0.50;0.50;;;4.40;99.90;;;;;;4960070;28;20218;-82
2024/02/07 10:52:32;;;;;;;1.42;1.05;;;4.40;99.90;;;;;;4956349;29;20588;-79
2024/02/07 10:55:06;;;;;;;0.60;0.60;;;4.40;99.90;;;;;;4960270;28;20227;-80
2024/02/07 10:57:38;;;;;;;0.60;0.60;;;4.50;99.90;;;;;;4955227;28;20302;-79
2024/02/07 11:00:07;;;;;;;0.88;0.88;;;4.60;99.90;;;;;;4970744;28;20250;-84
2024/02/07 11:02:35;;;;;;;0.60;0.60;;;4.60;99.90;;;;;;4957904;28;20224;-80
2024/02/07 11:05:04;;;;;;;0.60;0.60;;;4.80;99.90;;;;;;4953536;28;20215;-84
2024/02/07 11:07:32;;;;;;;0.60;0.60;;;4.80;99.90;;;;;;4945424;28;20275;-83
2024/02/07 11:10:01;;;;;;;1.20;1.17;;;5.00;99.90;;;;;;4951792;28;20222;-80
2024/02/07 11:12:29;;;;;;;0.60;0.60;;;4.90;99.90;;;;;;4958085;28;20211;-85
2024/02/07 11:14:58;;;;;;;0.75;0.75;;;4.90;99.90;;;;;;4948514;28;20275;-77
2024/02/07 11:17:25;;;;;;;0.68;0.68;;;4.90;99.90;;;;;;4940302;29;20231;-80
2024/02/07 11:19:52;;;;;;;0.60;0.60;;;5.00;99.90;;;;;;4970784;28;20552;-78
2024/02/07 11:22:39;;;;;;;0.60;0.60;;;5.00;99.90;;;;;;4965711;28;20215;-81
2024/02/07 11:25:10;;;;;;;0.60;0.60;;;4.90;99.90;;;;;;4958706;28;20188;-82
2024/02/07 11:27:41;;;;;;;0.73;0.73;;;4.80;99.90;;;;;;4937229;29;20313;-80
2024/02/07 11:30:09;;;;;;;0.63;0.63;;;4.80;99.90;;;;;;4957253;28;20497;-83
2024/02/07 11:32:38;;;;;;;0.90;0.90;;;4.70;99.90;;;;;;4946570;29;20204;-80
2024/02/07 11:35:10;;;;;;;0.70;0.70;;;4.70;99.90;;;;;;4966161;28;20207;-78
2024/02/07 11:37:39;;;;;;;0.90;0.90;;;4.60;99.90;;;;;;4963195;28;20401;-84
2024/02/07 11:40:08;;;;;;;0.90;0.90;;;4.70;99.90;;;;;;4964047;28;20205;-84
2024/02/07 11:42:38;;;;;;;0.63;0.63;;;4.70;99.90;;;;;;4959438;28;20507;-78
2024/02/07 11:45:06;;;;;;;0.60;0.60;;;4.60;99.90;;;;;;4962806;28;20250;-80
2024/02/07 11:47:40;;;;;;;0.82;0.82;;;4.60;99.90;;;;;;4951211;29;20208;-83
2024/02/07 11:50:07;;;;;;;0.80;0.80;;;4.50;99.90;;;;;;4939993;28;20274;-81
2024/02/07 11:52:39;;;;;;;0.60;0.60;;;4.70;99.90;;;;;;4958176;28;20389;-84
2024/02/07 11:55:16;;;;;;;1.00;1.00;;;4.70;99.90;;;;;;4960973;28;20208;-79
2024/02/07 11:57:45;;;;;;;0.60;0.60;;;4.70;99.90;;;;;;4951781;28;20229;-82
2024/02/07 12:00:16;;;;;;;1.05;0.93;;;4.60;99.90;;;;;;4947309;28;20251;-81
2024/02/07 12:02:51;;;;;;;0.68;0.68;;;4.70;99.90;;;;;;4947000;29;20212;-80
2024/02/07 12:05:20;;;;;;;0.60;0.60;;;4.60;99.90;;;;;;4928948;29;20208;-85
2024/02/07 12:07:48;;;;;;;0.60;0.60;;;4.60;99.90;;;;;;4950973;28;20216;-84
2024/02/07 12:10:15;;;;;;;0.50;0.50;;;4.70;99.90;;;;;;4958297;28;20457;-79
2024/02/07 12:12:43;;;;;;;0.57;0.57;;;4.60;99.90;;;;;;4956425;28;20208;-80
2024/02/07 12:15:10;;;;;;;0.88;0.88;;;4.60;99.90;;;;;;4948312;28;20672;-77
2024/02/07 12:17:37;;;;;;;0.60;0.60;;;4.60;99.90;;;;;;4930489;29;20254;-78
2024/02/07 12:20:05;;;;;;;0.55;0.55;;;4.50;99.90;;;;;;4945288;28;20227;-80
2024/02/07 12:22:35;;;;;;;0.80;0.80;;;4.50;99.90;;;;;;4952100;28;20255;-83
2024/02/07 12:25:05;;;;;;;0.60;0.60;;;4.40;99.90;;;;;;4948107;28;20232;-81
2024/02/07 12:27:32;;;;;;;0.50;0.50;;;4.40;99.90;;;;;;4951219;28;20235;-81
2024/02/07 12:29:59;;;;;;;0.50;0.50;;;4.50;99.90;;;;;;4954931;29;20207;-80
2024/02/07 12:32:27;;;;;;;1.15;1.15;;;4.50;99.90;;;;;;4958055;28;20263;-85
2024/02/07 12:34:58;;;;;;;0.50;0.50;;;4.50;99.90;;;;;;4962004;28;20237;-80
2024/02/07 12:37:26;;;;;;;0.50;0.50;;;4.60;99.90;;;;;;4944418;28;20203;-79
2024/02/07 12:39:53;;;;;;;1.58;1.52;;;4.50;99.90;;;;;;4956413;28;20278;-78
2024/02/07 12:42:22;;;;;;;0.50;0.50;;;4.60;99.90;;;;;;4943721;29;20392;-80
2024/02/07 12:44:49;;;;;;;0.50;0.50;;;4.70;99.90;;;;;;4950210;28;20207;-79
2024/02/07 12:47:20;;;;;;;1.27;1.25;;;4.70;99.90;;;;;;4970044;28;20208;-83
2024/02/07 12:49:49;;;;;;;0.50;0.50;;;4.70;99.90;;;;;;4957540;28;20204;-85
2024/02/07 12:52:18;;;;;;;0.50;0.50;;;4.60;99.90;;;;;;4953145;28;20476;-80
2024/02/07 12:54:46;;;;;;;0.90;0.90;;;4.70;99.90;;;;;;4957268;28;20521;-80
2024/02/07 12:57:21;;;;;;;0.50;0.50;;;4.70;99.90;;;;;;4939735;29;20247;-81
2024/02/07 12:59:50;;;;;;;0.70;0.70;;;4.70;99.90;;;;;;4942356;29;20293;-76
2024/02/07 13:02:18;;;;;;;0.88;0.88;;;4.60;99.90;;;;;;4955361;28;20500;-82
2024/02/07 13:04:46;;;;;;;0.70;0.70;;;4.80;99.90;;;;;;4942302;29;20280;-81
2024/02/07 13:07:15;;;;;;;0.50;0.50;;;4.80;99.90;;;;;;4951144;28;20243;-80
2024/02/07 13:09:43;;;;;;;0.50;0.50;;;4.80;99.90;;;;;;4951436;28;20242;-79
2024/02/07 13:12:12;;;;;;;0.93;0.93;;;4.80;99.90;;;;;;4935186;28;20500;-79
2024/02/07 13:14:55;;;;;;;1.50;0.90;;;4.70;99.90;;;;;;4962006;29;20246;-83
2024/02/07 13:17:22;;;;;;;1.15;0.80;;;5.00;99.90;;;;;;4958462;29;20224;-81
2024/02/07 13:19:49;;;;;;;0.50;0.50;;;5.00;99.90;;;;;;4949621;28;20239;-83
2024/02/07 13:22:16;;;;;;;0.40;0.40;;;4.90;99.90;;;;;;4931149;28;20212;-79
2024/02/07 13:24:43;;;;;;;0.50;0.50;;;5.00;99.90;;;;;;4944396;29;20208;-82
2024/02/07 13:27:11;;;;;;;2.15;1.77;;;4.90;99.90;;;;;;4960833;28;20307;-83
2024/02/07 13:29:41;;;;;;;0.50;0.50;;;4.90;99.90;;;;;;4931053;29;20243;-82
2024/02/07 13:32:12;;;;;;;0.60;0.60;;;4.90;99.90;;;;;;4949656;28;20215;-78
2024/02/07 13:34:45;;;;;;;0.50;0.50;;;4.90;99.90;;;;;;4955547;28;20258;-81
2024/02/07 13:37:12;;;;;;;1.40;1.30;;;5.10;99.90;;;;;;4963493;29;20211;-78
2024/02/07 13:39:41;;;;;;;0.50;0.50;;;5.10;99.90;;;;;;4957582;28;20244;-81
2024/02/07 13:42:08;;;;;;;2.70;2.60;;;4.90;99.90;;;;;;4953885;28;20202;-81
2024/02/07 13:44:35;;;;;;;5.10;1.10;;;5.00;99.90;;;;;;4960199;28;20207;-86
2024/02/07 13:47:02;;;;;;;0.60;0.60;;;4.90;99.90;;;;;;4954874;29;20304;-82
2024/02/07 13:49:29;;;;;;;0.50;0.50;;;4.80;99.90;;;;;;4946207;28;20254;-82
2024/02/07 13:51:57;;;;;;;1.25;0.80;;;4.80;99.90;;;;;;4948406;28;20221;-82
2024/02/07 13:54:24;;;;;;;0.60;0.60;;;4.80;99.90;;;;;;4948116;28;20251;-81
2024/02/07 13:56:51;;;;;;;0.50;0.50;;;4.90;99.90;;;;;;4944251;29;20256;-79
2024/02/07 13:59:19;;;;;;;2.05;1.95;;;4.90;99.90;;;;;;4965483;28;20293;-79
2024/02/07 14:01:48;;;;;;;0.50;0.50;;;4.80;99.90;;;;;;4950310;28;20272;-80
2024/02/07 14:04:15;;;;;;;0.50;0.50;;;4.80;99.90;;;;;;4942876;28;20200;-81
2024/02/07 14:06:42;;;;;;;0.50;0.50;;;4.70;99.90;;;;;;4963180;28;20248;-84